sensor_id;sensor_type;location;lat;lon;timestamp;P1;P2;P0
80396;PMS5003;69721;55.894;-3.052;2023-09-18T00:01:54;12;11;
80396;PMS5003;69721;55.894;-3.052;2023-09-18T00:04:20;10;10;
80396;PMS5003;69721;55.894;-3.052;2023-09-18T00:06:45;10;8;
80396;PMS5003;69721;55.894;-3.052;2023-09-18T00:09:11;9;9;
80396;PMS5003;69721;55.894;-3.052;2023-09-18T00:11:36;8;7;
80396;PMS5003;69721;55.894;-3.052;2023-09-18T00:14:01;9;9;
80396;PMS5003;69721;55.894;-3.052;2023-09-18T00:16:27;11;8;
80396;PMS5003;69721;55.894;-3.052;2023-09-18T00:18:52;9;9;
80396;PMS5003;69721;55.894;-3.052;2023-09-18T00:21:17;6;6;
80396;PMS5003;69721;55.894;-3.052;2023-09-18T00:23:42;9;7;
80396;PMS5003;69721;55.894;-3.052;2023-09-18T00:26:08;11;10;
80396;PMS5003;69721;55.894;-3.052;2023-09-18T00:28:33;8;8;
80396;PMS5003;69721;55.894;-3.052;2023-09-18T00:30:58;9;9;
80396;PMS5003;69721;55.894;-3.052;2023-09-18T00:33:24;14;9;
80396;PMS5003;69721;55.894;-3.052;2023-09-18T00:35:49;10;9;
80396;PMS5003;69721;55.894;-3.052;2023-09-18T00:38:15;14;11;
80396;PMS5003;69721;55.894;-3.052;2023-09-18T00:40:39;14;13;
80396;PMS5003;69721;55.894;-3.052;2023-09-18T00:43:05;10;10;
80396;PMS5003;69721;55.894;-3.052;2023-09-18T00:45:30;9;9;
80396;PMS5003;69721;55.894;-3.052;2023-09-18T00:47:56;11;8;
80396;PMS5003;69721;55.894;-3.052;2023-09-18T00:50:21;12;11;
80396;PMS5003;69721;55.894;-3.052;2023-09-18T00:52:47;9;9;
80396;PMS5003;69721;55.894;-3.052;2023-09-18T00:55:12;10;9;
80396;PMS5003;69721;55.894;-3.052;2023-09-18T01:00:03;11;10;
80396;PMS5003;69721;55.894;-3.052;2023-09-18T01:02:28;14;11;
80396;PMS5003;69721;55.894;-3.052;2023-09-18T01:04:53;13;11;
80396;PMS5003;69721;55.894;-3.052;2023-09-18T01:07:19;14;13;
80396;PMS5003;69721;55.894;-3.052;2023-09-18T01:09:44;10;10;
80396;PMS5003;69721;55.894;-3.052;2023-09-18T01:12:11;8;8;
80396;PMS5003;69721;55.894;-3.052;2023-09-18T01:14:37;10;10;
80396;PMS5003;69721;55.894;-3.052;2023-09-18T01:17:01;20;15;
80396;PMS5003;69721;55.894;-3.052;2023-09-18T01:21:51;15;13;
80396;PMS5003;69721;55.894;-3.052;2023-09-18T01:24:16;13;11;
80396;PMS5003;69721;55.894;-3.052;2023-09-18T01:26:42;10;10;
80396;PMS5003;69721;55.894;-3.052;2023-09-18T01:29:07;9;8;
80396;PMS5003;69721;55.894;-3.052;2023-09-18T01:31:33;12;10;
80396;PMS5003;69721;55.894;-3.052;2023-09-18T01:33:58;13;11;
80396;PMS5003;69721;55.894;-3.052;2023-09-18T01:36:23;11;11;
80396;PMS5003;69721;55.894;-3.052;2023-09-18T01:38:48;13;11;
80396;PMS5003;69721;55.894;-3.052;2023-09-18T01:41:14;11;11;
80396;PMS5003;69721;55.894;-3.052;2023-09-18T01:43:39;13;10;
80396;PMS5003;69721;55.894;-3.052;2023-09-18T01:46:05;11;10;
80396;PMS5003;69721;55.894;-3.052;2023-09-18T01:48:30;11;10;
80396;PMS5003;69721;55.894;-3.052;2023-09-18T01:50:55;11;9;
80396;PMS5003;69721;55.894;-3.052;2023-09-18T01:53:20;5;5;
80396;PMS5003;69721;55.894;-3.052;2023-09-18T01:55:47;10;9;
80396;PMS5003;69721;55.894;-3.052;2023-09-18T01:58:12;10;8;
80396;PMS5003;69721;55.894;-3.052;2023-09-18T02:00:38;11;11;
80396;PMS5003;69721;55.894;-3.052;2023-09-18T02:03:03;13;11;
80396;PMS5003;69721;55.894;-3.052;2023-09-18T02:05:28;9;9;
80396;PMS5003;69721;55.894;-3.052;2023-09-18T02:10:19;13;10;
80396;PMS5003;69721;55.894;-3.052;2023-09-18T02:12:44;10;9;
80396;PMS5003;69721;55.894;-3.052;2023-09-18T02:15:09;15;11;
80396;PMS5003;69721;55.894;-3.052;2023-09-18T02:17:35;11;11;
80396;PMS5003;69721;55.894;-3.052;2023-09-18T02:20:00;10;10;
80396;PMS5003;69721;55.894;-3.052;2023-09-18T02:22:26;12;9;
80396;PMS5003;69721;55.894;-3.052;2023-09-18T02:24:51;10;10;
80396;PMS5003;69721;55.894;-3.052;2023-09-18T02:27:16;13;12;
80396;PMS5003;69721;55.894;-3.052;2023-09-18T02:29:42;14;11;
80396;PMS5003;69721;55.894;-3.052;2023-09-18T02:32:08;12;12;
80396;PMS5003;69721;55.894;-3.052;2023-09-18T02:34:33;13;10;
80396;PMS5003;69721;55.894;-3.052;2023-09-18T02:36:59;14;14;
80396;PMS5003;69721;55.894;-3.052;2023-09-18T02:39:25;17;14;
80396;PMS5003;69721;55.894;-3.052;2023-09-18T02:41:50;18;15;
80396;PMS5003;69721;55.894;-3.052;2023-09-18T02:44:15;12;11;
80396;PMS5003;69721;55.894;-3.052;2023-09-18T02:46:41;9;9;
80396;PMS5003;69721;55.894;-3.052;2023-09-18T02:49:06;12;10;
80396;PMS5003;69721;55.894;-3.052;2023-09-18T02:51:31;10;10;
80396;PMS5003;69721;55.894;-3.052;2023-09-18T02:53:56;10;10;
80396;PMS5003;69721;55.894;-3.052;2023-09-18T02:56:21;14;12;
80396;PMS5003;69721;55.894;-3.052;2023-09-18T02:58:47;11;10;
80396;PMS5003;69721;55.894;-3.052;2023-09-18T03:01:12;12;11;
80396;PMS5003;69721;55.894;-3.052;2023-09-18T03:03:37;12;11;
80396;PMS5003;69721;55.894;-3.052;2023-09-18T03:06:03;13;11;
80396;PMS5003;69721;55.894;-3.052;2023-09-18T03:08:29;12;11;
80396;PMS5003;69721;55.894;-3.052;2023-09-18T03:10:54;9;9;
80396;PMS5003;69721;55.894;-3.052;2023-09-18T03:13:21;12;10;
80396;PMS5003;69721;55.894;-3.052;2023-09-18T03:15:45;9;9;
80396;PMS5003;69721;55.894;-3.052;2023-09-18T03:20:36;8;7;
80396;PMS5003;69721;55.894;-3.052;2023-09-18T03:23:02;11;11;
80396;PMS5003;69721;55.894;-3.052;2023-09-18T03:25:27;14;11;
80396;PMS5003;69721;55.894;-3.052;2023-09-18T03:27:53;10;9;
80396;PMS5003;69721;55.894;-3.052;2023-09-18T03:30:18;13;10;
80396;PMS5003;69721;55.894;-3.052;2023-09-18T03:32:43;13;10;
80396;PMS5003;69721;55.894;-3.052;2023-09-18T03:35:08;7;7;
80396;PMS5003;69721;55.894;-3.052;2023-09-18T03:37:34;13;11;
80396;PMS5003;69721;55.894;-3.052;2023-09-18T03:39:59;16;10;
80396;PMS5003;69721;55.894;-3.052;2023-09-18T03:42:25;9;9;
80396;PMS5003;69721;55.894;-3.052;2023-09-18T03:44:51;10;9;
80396;PMS5003;69721;55.894;-3.052;2023-09-18T03:47:16;8;8;
80396;PMS5003;69721;55.894;-3.052;2023-09-18T03:49:42;7;7;
80396;PMS5003;69721;55.894;-3.052;2023-09-18T03:52:07;10;10;
80396;PMS5003;69721;55.894;-3.052;2023-09-18T03:54:33;11;11;
80396;PMS5003;69721;55.894;-3.052;2023-09-18T03:56:58;10;10;
80396;PMS5003;69721;55.894;-3.052;2023-09-18T03:59:23;9;8;
80396;PMS5003;69721;55.894;-3.052;2023-09-18T04:01:49;11;10;
80396;PMS5003;69721;55.894;-3.052;2023-09-18T04:04:14;12;9;
80396;PMS5003;69721;55.894;-3.052;2023-09-18T04:06:40;10;9;
80396;PMS5003;69721;55.894;-3.052;2023-09-18T04:09:05;8;8;
80396;PMS5003;69721;55.894;-3.052;2023-09-18T04:11:31;10;10;
80396;PMS5003;69721;55.894;-3.052;2023-09-18T04:13:56;11;9;
80396;PMS5003;69721;55.894;-3.052;2023-09-18T04:16:21;9;9;
80396;PMS5003;69721;55.894;-3.052;2023-09-18T04:18:47;11;10;
80396;PMS5003;69721;55.894;-3.052;2023-09-18T04:21:12;9;9;
80396;PMS5003;69721;55.894;-3.052;2023-09-18T04:23:38;11;9;
80396;PMS5003;69721;55.894;-3.052;2023-09-18T04:26:04;7;7;
80396;PMS5003;69721;55.894;-3.052;2023-09-18T04:30:54;8;8;
80396;PMS5003;69721;55.894;-3.052;2023-09-18T04:33:19;9;9;
80396;PMS5003;69721;55.894;-3.052;2023-09-18T04:35:46;8;8;
80396;PMS5003;69721;55.894;-3.052;2023-09-18T04:38:11;9;7;
80396;PMS5003;69721;55.894;-3.052;2023-09-18T04:40:36;11;11;
80396;PMS5003;69721;55.894;-3.052;2023-09-18T04:43:02;8;8;
80396;PMS5003;69721;55.894;-3.052;2023-09-18T04:45:27;8;8;
80396;PMS5003;69721;55.894;-3.052;2023-09-18T04:47:53;6;6;
80396;PMS5003;69721;55.894;-3.052;2023-09-18T04:50:19;7;7;
80396;PMS5003;69721;55.894;-3.052;2023-09-18T04:52:44;7;6;
80396;PMS5003;69721;55.894;-3.052;2023-09-18T04:55:10;8;8;
80396;PMS5003;69721;55.894;-3.052;2023-09-18T04:57:35;9;8;
80396;PMS5003;69721;55.894;-3.052;2023-09-18T05:00:00;8;7;
80396;PMS5003;69721;55.894;-3.052;2023-09-18T05:02:26;7;5;
80396;PMS5003;69721;55.894;-3.052;2023-09-18T05:04:51;8;5;
80396;PMS5003;69721;55.894;-3.052;2023-09-18T05:07:17;6;6;
80396;PMS5003;69721;55.894;-3.052;2023-09-18T05:09:42;5;5;
80396;PMS5003;69721;55.894;-3.052;2023-09-18T05:12:08;9;7;
80396;PMS5003;69721;55.894;-3.052;2023-09-18T05:14:32;15;8;
80396;PMS5003;69721;55.894;-3.052;2023-09-18T05:16:58;7;7;
80396;PMS5003;69721;55.894;-3.052;2023-09-18T05:19:23;8;8;
80396;PMS5003;69721;55.894;-3.052;2023-09-18T05:21:49;7;6;
80396;PMS5003;69721;55.894;-3.052;2023-09-18T05:24:14;6;5;
80396;PMS5003;69721;55.894;-3.052;2023-09-18T05:26:39;6;5;
80396;PMS5003;69721;55.894;-3.052;2023-09-18T05:29:05;4;4;
80396;PMS5003;69721;55.894;-3.052;2023-09-18T05:31:30;7;7;
80396;PMS5003;69721;55.894;-3.052;2023-09-18T05:33:56;6;6;
80396;PMS5003;69721;55.894;-3.052;2023-09-18T05:36:21;5;5;
80396;PMS5003;69721;55.894;-3.052;2023-09-18T05:41:12;6;6;
80396;PMS5003;69721;55.894;-3.052;2023-09-18T05:43:37;4;4;
80396;PMS5003;69721;55.894;-3.052;2023-09-18T05:46:03;6;5;
80396;PMS5003;69721;55.894;-3.052;2023-09-18T05:48:29;4;4;
80396;PMS5003;69721;55.894;-3.052;2023-09-18T05:50:54;4;4;
80396;PMS5003;69721;55.894;-3.052;2023-09-18T05:53:20;3;3;
80396;PMS5003;69721;55.894;-3.052;2023-09-18T05:55:45;4;4;
80396;PMS5003;69721;55.894;-3.052;2023-09-18T05:58:11;2;2;
80396;PMS5003;69721;55.894;-3.052;2023-09-18T06:00:37;3;3;
80396;PMS5003;69721;55.894;-3.052;2023-09-18T06:03:02;5;4;
80396;PMS5003;69721;55.894;-3.052;2023-09-18T06:05:28;3;3;
80396;PMS5003;69721;55.894;-3.052;2023-09-18T06:07:53;5;5;
80396;PMS5003;69721;55.894;-3.052;2023-09-18T06:10:18;3;2;
80396;PMS5003;69721;55.894;-3.052;2023-09-18T06:12:44;3;2;
80396;PMS5003;69721;55.894;-3.052;2023-09-18T06:15:09;2;2;
80396;PMS5003;69721;55.894;-3.052;2023-09-18T06:17:35;1;1;
80396;PMS5003;69721;55.894;-3.052;2023-09-18T06:20:00;2;2;
80396;PMS5003;69721;55.894;-3.052;2023-09-18T06:22:26;3;2;
80396;PMS5003;69721;55.894;-3.052;2023-09-18T06:24:51;5;4;
80396;PMS5003;69721;55.894;-3.052;2023-09-18T06:27:17;2;2;
80396;PMS5003;69721;55.894;-3.052;2023-09-18T06:29:42;2;2;
80396;PMS5003;69721;55.894;-3.052;2023-09-18T06:32:07;1;1;
80396;PMS5003;69721;55.894;-3.052;2023-09-18T06:34:33;3;3;
80396;PMS5003;69721;55.894;-3.052;2023-09-18T06:37:00;2;2;
80396;PMS5003;69721;55.894;-3.052;2023-09-18T06:39:25;1;1;
80396;PMS5003;69721;55.894;-3.052;2023-09-18T06:41:51;1;1;
80396;PMS5003;69721;55.894;-3.052;2023-09-18T06:44:16;1;1;
80396;PMS5003;69721;55.894;-3.052;2023-09-18T06:46:42;1;1;
80396;PMS5003;69721;55.894;-3.052;2023-09-18T06:51:32;1;1;
80396;PMS5003;69721;55.894;-3.052;2023-09-18T06:53:58;2;2;
80396;PMS5003;69721;55.894;-3.052;2023-09-18T06:56:23;2;2;
80396;PMS5003;69721;55.894;-3.052;2023-09-18T06:58:48;3;3;
80396;PMS5003;69721;55.894;-3.052;2023-09-18T07:01:14;2;2;
80396;PMS5003;69721;55.894;-3.052;2023-09-18T07:03:39;2;2;
80396;PMS5003;69721;55.894;-3.052;2023-09-18T07:06:05;3;2;
80396;PMS5003;69721;55.894;-3.052;2023-09-18T07:08:30;4;2;
80396;PMS5003;69721;55.894;-3.052;2023-09-18T07:10:55;1;1;
80396;PMS5003;69721;55.894;-3.052;2023-09-18T07:13:21;1;0;
80396;PMS5003;69721;55.894;-3.052;2023-09-18T07:15:46;1;1;
80396;PMS5003;69721;55.894;-3.052;2023-09-18T07:18:12;1;1;
80396;PMS5003;69721;55.894;-3.052;2023-09-18T07:20:37;0;0;
80396;PMS5003;69721;55.894;-3.052;2023-09-18T07:23:02;1;1;
80396;PMS5003;69721;55.894;-3.052;2023-09-18T07:25:28;1;0;
80396;PMS5003;69721;55.894;-3.052;2023-09-18T07:27:53;1;1;
80396;PMS5003;69721;55.894;-3.052;2023-09-18T07:30:18;0;0;
80396;PMS5003;69721;55.894;-3.052;2023-09-18T07:32:44;0;0;
80396;PMS5003;69721;55.894;-3.052;2023-09-18T07:35:10;0;0;
80396;PMS5003;69721;55.894;-3.052;2023-09-18T07:37:35;0;0;
80396;PMS5003;69721;55.894;-3.052;2023-09-18T07:40:01;0;0;
80396;PMS5003;69721;55.894;-3.052;2023-09-18T07:42:26;0;0;
80396;PMS5003;69721;55.894;-3.052;2023-09-18T07:44:51;0;0;
80396;PMS5003;69721;55.894;-3.052;2023-09-18T07:47:17;0;0;
80396;PMS5003;69721;55.894;-3.052;2023-09-18T07:49:42;2;2;
80396;PMS5003;69721;55.894;-3.052;2023-09-18T07:52:08;0;0;
80396;PMS5003;69721;55.894;-3.052;2023-09-18T07:54:33;0;0;
80396;PMS5003;69721;55.894;-3.052;2023-09-18T07:56:58;1;1;
80396;PMS5003;69721;55.894;-3.052;2023-09-18T08:01:49;0;0;
80396;PMS5003;69721;55.894;-3.052;2023-09-18T08:04:15;0;0;
80396;PMS5003;69721;55.894;-3.052;2023-09-18T08:06:40;0;0;
80396;PMS5003;69721;55.894;-3.052;2023-09-18T08:09:05;1;1;
80396;PMS5003;69721;55.894;-3.052;2023-09-18T08:11:31;0;0;
80396;PMS5003;69721;55.894;-3.052;2023-09-18T08:13:56;0;0;
80396;PMS5003;69721;55.894;-3.052;2023-09-18T08:16:21;0;0;
80396;PMS5003;69721;55.894;-3.052;2023-09-18T08:18:48;0;0;
80396;PMS5003;69721;55.894;-3.052;2023-09-18T08:21:13;1;1;
80396;PMS5003;69721;55.894;-3.052;2023-09-18T08:23:38;3;1;
80396;PMS5003;69721;55.894;-3.052;2023-09-18T08:26:04;1;1;
80396;PMS5003;69721;55.894;-3.052;2023-09-18T08:28:29;1;1;
80396;PMS5003;69721;55.894;-3.052;2023-09-18T08:30:55;0;0;
80396;PMS5003;69721;55.894;-3.052;2023-09-18T08:33:20;1;1;
80396;PMS5003;69721;55.894;-3.052;2023-09-18T08:35:46;1;1;
80396;PMS5003;69721;55.894;-3.052;2023-09-18T08:38:12;1;0;
80396;PMS5003;69721;55.894;-3.052;2023-09-18T08:40:39;1;1;
80396;PMS5003;69721;55.894;-3.052;2023-09-18T08:43:03;1;0;
80396;PMS5003;69721;55.894;-3.052;2023-09-18T08:45:30;0;0;
80396;PMS5003;69721;55.894;-3.052;2023-09-18T08:47:53;0;0;
80396;PMS5003;69721;55.894;-3.052;2023-09-18T08:50:18;0;0;
80396;PMS5003;69721;55.894;-3.052;2023-09-18T08:52:44;1;1;
80396;PMS5003;69721;55.894;-3.052;2023-09-18T08:55:09;0;0;
80396;PMS5003;69721;55.894;-3.052;2023-09-18T08:57:35;0;0;
80396;PMS5003;69721;55.894;-3.052;2023-09-18T09:00:00;0;0;
80396;PMS5003;69721;55.894;-3.052;2023-09-18T09:02:25;1;1;
80396;PMS5003;69721;55.894;-3.052;2023-09-18T09:04:51;0;0;
80396;PMS5003;69721;55.894;-3.052;2023-09-18T09:07:16;2;0;
80396;PMS5003;69721;55.894;-3.052;2023-09-18T09:12:07;2;2;
80396;PMS5003;69721;55.894;-3.052;2023-09-18T09:14:32;1;1;
80396;PMS5003;69721;55.894;-3.052;2023-09-18T09:16:58;0;0;
80396;PMS5003;69721;55.894;-3.052;2023-09-18T09:19:29;1;1;
80396;PMS5003;69721;55.894;-3.052;2023-09-18T09:21:49;1;1;
80396;PMS5003;69721;55.894;-3.052;2023-09-18T09:24:14;1;1;
80396;PMS5003;69721;55.894;-3.052;2023-09-18T09:26:40;2;2;
80396;PMS5003;69721;55.894;-3.052;2023-09-18T09:31:30;3;2;
80396;PMS5003;69721;55.894;-3.052;2023-09-18T09:33:56;1;1;
80396;PMS5003;69721;55.894;-3.052;2023-09-18T09:36:21;0;0;
80396;PMS5003;69721;55.894;-3.052;2023-09-18T09:38:46;0;0;
80396;PMS5003;69721;55.894;-3.052;2023-09-18T09:41:13;1;1;
80396;PMS5003;69721;55.894;-3.052;2023-09-18T09:43:37;1;1;
80396;PMS5003;69721;55.894;-3.052;2023-09-18T09:46:03;1;1;
80396;PMS5003;69721;55.894;-3.052;2023-09-18T09:48:28;0;0;
80396;PMS5003;69721;55.894;-3.052;2023-09-18T09:50:57;0;0;
80396;PMS5003;69721;55.894;-3.052;2023-09-18T09:53:19;0;0;
80396;PMS5003;69721;55.894;-3.052;2023-09-18T09:55:44;1;1;
80396;PMS5003;69721;55.894;-3.052;2023-09-18T09:58:11;0;0;
80396;PMS5003;69721;55.894;-3.052;2023-09-18T10:00:36;1;1;
80396;PMS5003;69721;55.894;-3.052;2023-09-18T10:03:02;1;1;
80396;PMS5003;69721;55.894;-3.052;2023-09-18T10:05:28;1;1;
80396;PMS5003;69721;55.894;-3.052;2023-09-18T10:07:52;1;1;
80396;PMS5003;69721;55.894;-3.052;2023-09-18T10:10:17;0;0;
80396;PMS5003;69721;55.894;-3.052;2023-09-18T10:12:43;2;1;
80396;PMS5003;69721;55.894;-3.052;2023-09-18T10:15:08;3;1;
80396;PMS5003;69721;55.894;-3.052;2023-09-18T10:17:33;4;1;
80396;PMS5003;69721;55.894;-3.052;2023-09-18T10:24:50;1;1;
80396;PMS5003;69721;55.894;-3.052;2023-09-18T10:27:15;2;1;
80396;PMS5003;69721;55.894;-3.052;2023-09-18T10:29:41;1;1;
80396;PMS5003;69721;55.894;-3.052;2023-09-18T10:32:07;1;1;
80396;PMS5003;69721;55.894;-3.052;2023-09-18T10:34:32;2;2;
80396;PMS5003;69721;55.894;-3.052;2023-09-18T10:36:57;0;0;
80396;PMS5003;69721;55.894;-3.052;2023-09-18T10:39:23;1;1;
80396;PMS5003;69721;55.894;-3.052;2023-09-18T10:41:49;1;1;
80396;PMS5003;69721;55.894;-3.052;2023-09-18T10:44:13;1;1;
80396;PMS5003;69721;55.894;-3.052;2023-09-18T10:46:39;2;0;
80396;PMS5003;69721;55.894;-3.052;2023-09-18T10:49:04;2;2;
80396;PMS5003;69721;55.894;-3.052;2023-09-18T10:51:30;0;0;
80396;PMS5003;69721;55.894;-3.052;2023-09-18T10:53:56;2;1;
80396;PMS5003;69721;55.894;-3.052;2023-09-18T10:56:20;2;2;
80396;PMS5003;69721;55.894;-3.052;2023-09-18T10:58:46;0;0;
80396;PMS5003;69721;55.894;-3.052;2023-09-18T11:01:11;1;1;
80396;PMS5003;69721;55.894;-3.052;2023-09-18T11:03:37;0;0;
80396;PMS5003;69721;55.894;-3.052;2023-09-18T11:06:03;1;1;
80396;PMS5003;69721;55.894;-3.052;2023-09-18T11:08:28;2;1;
80396;PMS5003;69721;55.894;-3.052;2023-09-18T11:10:57;1;0;
80396;PMS5003;69721;55.894;-3.052;2023-09-18T11:15:44;0;0;
80396;PMS5003;69721;55.894;-3.052;2023-09-18T11:18:09;0;0;
80396;PMS5003;69721;55.894;-3.052;2023-09-18T11:20:34;0;0;
80396;PMS5003;69721;55.894;-3.052;2023-09-18T11:23:10;0;0;
80396;PMS5003;69721;55.894;-3.052;2023-09-18T11:27:52;2;1;
80396;PMS5003;69721;55.894;-3.052;2023-09-18T11:35:08;1;1;
80396;PMS5003;69721;55.894;-3.052;2023-09-18T11:37:33;1;1;
80396;PMS5003;69721;55.894;-3.052;2023-09-18T11:39:58;1;1;
80396;PMS5003;69721;55.894;-3.052;2023-09-18T11:42:24;1;1;
80396;PMS5003;69721;55.894;-3.052;2023-09-18T11:44:49;1;1;
80396;PMS5003;69721;55.894;-3.052;2023-09-18T11:47:15;1;1;
80396;PMS5003;69721;55.894;-3.052;2023-09-18T11:49:40;0;0;
80396;PMS5003;69721;55.894;-3.052;2023-09-18T11:52:05;0;0;
80396;PMS5003;69721;55.894;-3.052;2023-09-18T11:54:31;1;1;
80396;PMS5003;69721;55.894;-3.052;2023-09-18T11:56:56;2;0;
80396;PMS5003;69721;55.894;-3.052;2023-09-18T12:04:12;3;2;
80396;PMS5003;69721;55.894;-3.052;2023-09-18T12:06:38;1;0;
80396;PMS5003;69721;55.894;-3.052;2023-09-18T12:09:03;1;1;
80396;PMS5003;69721;55.894;-3.052;2023-09-18T12:11:28;4;1;
80396;PMS5003;69721;55.894;-3.052;2023-09-18T12:13:54;4;1;
80396;PMS5003;69721;55.894;-3.052;2023-09-18T12:16:19;1;1;
80396;PMS5003;69721;55.894;-3.052;2023-09-18T12:18:45;1;1;
80396;PMS5003;69721;55.894;-3.052;2023-09-18T12:21:10;3;1;
80396;PMS5003;69721;55.894;-3.052;2023-09-18T12:23:37;3;2;
80396;PMS5003;69721;55.894;-3.052;2023-09-18T12:26:01;3;1;
80396;PMS5003;69721;55.894;-3.052;2023-09-18T12:28:26;3;1;
80396;PMS5003;69721;55.894;-3.052;2023-09-18T12:30:51;1;0;
80396;PMS5003;69721;55.894;-3.052;2023-09-18T12:33:17;3;2;
80396;PMS5003;69721;55.894;-3.052;2023-09-18T12:35:42;4;2;
80396;PMS5003;69721;55.894;-3.052;2023-09-18T12:38:13;1;1;
80396;PMS5003;69721;55.894;-3.052;2023-09-18T12:45:25;3;1;
80396;PMS5003;69721;55.894;-3.052;2023-09-18T12:47:50;3;1;
80396;PMS5003;69721;55.894;-3.052;2023-09-18T12:50:16;3;1;
80396;PMS5003;69721;55.894;-3.052;2023-09-18T12:52:41;1;1;
80396;PMS5003;69721;55.894;-3.052;2023-09-18T12:55:07;1;1;
80396;PMS5003;69721;55.894;-3.052;2023-09-18T12:57:33;3;2;
80396;PMS5003;69721;55.894;-3.052;2023-09-18T12:59:58;4;2;
80396;PMS5003;69721;55.894;-3.052;2023-09-18T13:02:23;2;0;
80396;PMS5003;69721;55.894;-3.052;2023-09-18T13:04:52;4;2;
80396;PMS5003;69721;55.894;-3.052;2023-09-18T13:07:14;1;0;
80396;PMS5003;69721;55.894;-3.052;2023-09-18T13:09:40;3;2;
80396;PMS5003;69721;55.894;-3.052;2023-09-18T13:12:05;5;2;
80396;PMS5003;69721;55.894;-3.052;2023-09-18T13:14:40;4;1;
80396;PMS5003;69721;55.894;-3.052;2023-09-18T13:17:00;6;3;
80396;PMS5003;69721;55.894;-3.052;2023-09-18T13:19:21;2;2;
80396;PMS5003;69721;55.894;-3.052;2023-09-18T13:21:49;2;2;
80396;PMS5003;69721;55.894;-3.052;2023-09-18T13:26:39;2;2;
80396;PMS5003;69721;55.894;-3.052;2023-09-18T13:29:05;1;1;
80396;PMS5003;69721;55.894;-3.052;2023-09-18T13:31:30;2;2;
80396;PMS5003;69721;55.894;-3.052;2023-09-18T13:33:56;2;2;
80396;PMS5003;69721;55.894;-3.052;2023-09-18T13:36:22;2;1;
80396;PMS5003;69721;55.894;-3.052;2023-09-18T13:38:47;5;2;
80396;PMS5003;69721;55.894;-3.052;2023-09-18T13:41:13;7;1;
80396;PMS5003;69721;55.894;-3.052;2023-09-18T13:43:38;3;2;
80396;PMS5003;69721;55.894;-3.052;2023-09-18T13:46:03;4;2;
80396;PMS5003;69721;55.894;-3.052;2023-09-18T13:48:29;5;2;
80396;PMS5003;69721;55.894;-3.052;2023-09-18T13:50:54;3;2;
80396;PMS5003;69721;55.894;-3.052;2023-09-18T13:53:20;4;2;
80396;PMS5003;69721;55.894;-3.052;2023-09-18T13:55:45;1;1;
80396;PMS5003;69721;55.894;-3.052;2023-09-18T13:58:10;7;2;
80396;PMS5003;69721;55.894;-3.052;2023-09-18T14:00:36;1;0;
80396;PMS5003;69721;55.894;-3.052;2023-09-18T14:05:27;5;1;
80396;PMS5003;69721;55.894;-3.052;2023-09-18T14:07:52;6;1;
80396;PMS5003;69721;55.894;-3.052;2023-09-18T14:10:18;3;0;
80396;PMS5003;69721;55.894;-3.052;2023-09-18T14:12:43;1;1;
80396;PMS5003;69721;55.894;-3.052;2023-09-18T14:15:09;4;2;
80396;PMS5003;69721;55.894;-3.052;2023-09-18T14:17:34;1;0;
80396;PMS5003;69721;55.894;-3.052;2023-09-18T14:19:59;3;2;
80396;PMS5003;69721;55.894;-3.052;2023-09-18T14:22:24;0;0;
80396;PMS5003;69721;55.894;-3.052;2023-09-18T14:24:50;1;1;
80396;PMS5003;69721;55.894;-3.052;2023-09-18T14:27:15;0;0;
80396;PMS5003;69721;55.894;-3.052;2023-09-18T14:29:40;1;0;
80396;PMS5003;69721;55.894;-3.052;2023-09-18T14:32:06;3;2;
80396;PMS5003;69721;55.894;-3.052;2023-09-18T14:34:31;1;1;
80396;PMS5003;69721;55.894;-3.052;2023-09-18T14:36:57;1;1;
80396;PMS5003;69721;55.894;-3.052;2023-09-18T14:39:22;2;1;
80396;PMS5003;69721;55.894;-3.052;2023-09-18T14:41:47;2;2;
80396;PMS5003;69721;55.894;-3.052;2023-09-18T14:44:13;1;1;
80396;PMS5003;69721;55.894;-3.052;2023-09-18T14:46:38;0;0;
80396;PMS5003;69721;55.894;-3.052;2023-09-18T14:49:04;2;0;
80396;PMS5003;69721;55.894;-3.052;2023-09-18T14:51:29;0;0;
80396;PMS5003;69721;55.894;-3.052;2023-09-18T14:53:54;1;1;
80396;PMS5003;69721;55.894;-3.052;2023-09-18T14:56:20;2;1;
80396;PMS5003;69721;55.894;-3.052;2023-09-18T14:58:45;1;1;
80396;PMS5003;69721;55.894;-3.052;2023-09-18T15:01:11;1;1;
80396;PMS5003;69721;55.894;-3.052;2023-09-18T15:03:36;3;1;
80396;PMS5003;69721;55.894;-3.052;2023-09-18T15:06:01;3;1;
80396;PMS5003;69721;55.894;-3.052;2023-09-18T15:08:27;3;1;
80396;PMS5003;69721;55.894;-3.052;2023-09-18T15:10:52;1;0;
80396;PMS5003;69721;55.894;-3.052;2023-09-18T15:15:43;3;1;
80396;PMS5003;69721;55.894;-3.052;2023-09-18T15:18:08;1;0;
80396;PMS5003;69721;55.894;-3.052;2023-09-18T15:20:34;1;1;
80396;PMS5003;69721;55.894;-3.052;2023-09-18T15:22:59;1;1;
80396;PMS5003;69721;55.894;-3.052;2023-09-18T15:25:24;2;0;
80396;PMS5003;69721;55.894;-3.052;2023-09-18T15:27:50;0;0;
80396;PMS5003;69721;55.894;-3.052;2023-09-18T15:30:15;0;0;
80396;PMS5003;69721;55.894;-3.052;2023-09-18T15:32:47;0;0;
80396;PMS5003;69721;55.894;-3.052;2023-09-18T15:35:07;0;0;
80396;PMS5003;69721;55.894;-3.052;2023-09-18T15:37:32;0;0;
80396;PMS5003;69721;55.894;-3.052;2023-09-18T15:39:58;2;2;
80396;PMS5003;69721;55.894;-3.052;2023-09-18T15:42:23;0;0;
80396;PMS5003;69721;55.894;-3.052;2023-09-18T15:44:49;2;1;
80396;PMS5003;69721;55.894;-3.052;2023-09-18T15:47:14;3;0;
80396;PMS5003;69721;55.894;-3.052;2023-09-18T15:49:39;1;0;
80396;PMS5003;69721;55.894;-3.052;2023-09-18T15:52:05;0;0;
80396;PMS5003;69721;55.894;-3.052;2023-09-18T15:54:30;3;1;
80396;PMS5003;69721;55.894;-3.052;2023-09-18T15:56:56;2;0;
80396;PMS5003;69721;55.894;-3.052;2023-09-18T15:59:21;0;0;
80396;PMS5003;69721;55.894;-3.052;2023-09-18T16:01:46;0;0;
80396;PMS5003;69721;55.894;-3.052;2023-09-18T16:04:12;2;0;
80396;PMS5003;69721;55.894;-3.052;2023-09-18T16:06:37;2;0;
80396;PMS5003;69721;55.894;-3.052;2023-09-18T16:09:03;2;1;
80396;PMS5003;69721;55.894;-3.052;2023-09-18T16:11:28;1;1;
80396;PMS5003;69721;55.894;-3.052;2023-09-18T16:13:54;1;1;
80396;PMS5003;69721;55.894;-3.052;2023-09-18T16:16:19;1;0;
80396;PMS5003;69721;55.894;-3.052;2023-09-18T16:18:44;1;1;
80396;PMS5003;69721;55.894;-3.052;2023-09-18T16:21:10;0;0;
80396;PMS5003;69721;55.894;-3.052;2023-09-18T16:26:01;3;3;
80396;PMS5003;69721;55.894;-3.052;2023-09-18T16:28:26;0;0;
80396;PMS5003;69721;55.894;-3.052;2023-09-18T16:30:51;0;0;
80396;PMS5003;69721;55.894;-3.052;2023-09-18T16:33:17;0;0;
80396;PMS5003;69721;55.894;-3.052;2023-09-18T16:35:42;1;1;
80396;PMS5003;69721;55.894;-3.052;2023-09-18T16:38:08;0;0;
80396;PMS5003;69721;55.894;-3.052;2023-09-18T16:40:33;0;0;
80396;PMS5003;69721;55.894;-3.052;2023-09-18T16:42:59;0;0;
80396;PMS5003;69721;55.894;-3.052;2023-09-18T16:45:24;1;1;
80396;PMS5003;69721;55.894;-3.052;2023-09-18T16:47:50;1;0;
80396;PMS5003;69721;55.894;-3.052;2023-09-18T16:50:15;0;0;
80396;PMS5003;69721;55.894;-3.052;2023-09-18T16:52:41;0;0;
80396;PMS5003;69721;55.894;-3.052;2023-09-18T16:55:06;0;0;
80396;PMS5003;69721;55.894;-3.052;2023-09-18T16:57:31;1;1;
80396;PMS5003;69721;55.894;-3.052;2023-09-18T16:59:57;2;0;
80396;PMS5003;69721;55.894;-3.052;2023-09-18T17:02:23;2;1;
80396;PMS5003;69721;55.894;-3.052;2023-09-18T17:04:49;3;1;
80396;PMS5003;69721;55.894;-3.052;2023-09-18T17:07:14;1;1;
80396;PMS5003;69721;55.894;-3.052;2023-09-18T17:09:40;2;0;
80396;PMS5003;69721;55.894;-3.052;2023-09-18T17:12:05;2;1;
80396;PMS5003;69721;55.894;-3.052;2023-09-18T17:14:31;0;0;